sensor_id;sensor_type;location;lat;lon;timestamp;pressure;altitude;pressure_sealevel;temperature;humidity
46583;BME280;32309;48.858;8.252;2022-10-18T00:01:01;101160.09;;;16.12;83.24
46583;BME280;32309;48.858;8.252;2022-10-18T00:03:01;101165.44;;;16.11;83.50
46583;BME280;32309;48.858;8.252;2022-10-18T00:05:02;101167.13;;;16.12;83.49
46583;BME280;32309;48.858;8.252;2022-10-18T00:07:02;101165.25;;;16.14;82.75
46583;BME280;32309;48.858;8.252;2022-10-18T00:09:03;101156.66;;;16.12;82.82
46583;BME280;32309;48.858;8.252;2022-10-18T00:11:03;101160.94;;;16.13;83.12
46583;BME280;32309;48.858;8.252;2022-10-18T00:13:03;101161.78;;;16.13;83.19
46583;BME280;32309;48.858;8.252;2022-10-18T00:15:04;101159.28;;;16.12;82.47
46583;BME280;32309;48.858;8.252;2022-10-18T00:17:05;101155.72;;;16.13;83.10
46583;BME280;32309;48.858;8.252;2022-10-18T00:19:06;101152.25;;;16.12;82.88
46583;BME280;32309;48.858;8.252;2022-10-18T00:21:07;101159.28;;;16.12;82.35
46583;BME280;32309;48.858;8.252;2022-10-18T00:23:08;101154.78;;;16.14;82.11
46583;BME280;32309;48.858;8.252;2022-10-18T00:25:08;101162.53;;;16.16;82.36
46583;BME280;32309;48.858;8.252;2022-10-18T00:27:09;101164.22;;;16.17;82.61
46583;BME280;32309;48.858;8.252;2022-10-18T00:29:09;101164.94;;;16.19;82.26
46583;BME280;32309;48.858;8.252;2022-10-18T00:31:12;101160.44;;;16.21;81.51
46583;BME280;32309;48.858;8.252;2022-10-18T00:33:13;101161.28;;;16.21;82.03
46583;BME280;32309;48.858;8.252;2022-10-18T00:35:13;101164.72;;;16.22;81.62
46583;BME280;32309;48.858;8.252;2022-10-18T00:37:14;101162.94;;;16.22;81.61
46583;BME280;32309;48.858;8.252;2022-10-18T00:39:15;101165.47;;;16.24;80.97
46583;BME280;32309;48.858;8.252;2022-10-18T00:41:20;101166.28;;;16.24;81.11
46583;BME280;32309;48.858;8.252;2022-10-18T00:43:20;101165.34;;;16.25;81.59
46583;BME280;32309;48.858;8.252;2022-10-18T00:45:21;101162.63;;;16.27;81.09
46583;BME280;32309;48.858;8.252;2022-10-18T00:47:22;101163.47;;;16.27;80.84
46583;BME280;32309;48.858;8.252;2022-10-18T00:49:24;101161.81;;;16.26;80.46
46583;BME280;32309;48.858;8.252;2022-10-18T00:51:27;101160.00;;;16.27;81.11
46583;BME280;32309;48.858;8.252;2022-10-18T00:53:29;101164.41;;;16.26;81.09
46583;BME280;32309;48.858;8.252;2022-10-18T00:55:30;101165.25;;;16.27;80.30
46583;BME280;32309;48.858;8.252;2022-10-18T00:57:31;101161.81;;;16.26;81.01
46583;BME280;32309;48.858;8.252;2022-10-18T00:59:32;101170.59;;;16.25;80.52
46583;BME280;32309;48.858;8.252;2022-10-18T01:01:32;101167.84;;;16.27;81.21
46583;BME280;32309;48.858;8.252;2022-10-18T01:03:33;101173.84;;;16.29;80.72
46583;BME280;32309;48.858;8.252;2022-10-18T01:05:37;101171.22;;;16.29;80.64
46583;BME280;32309;48.858;8.252;2022-10-18T01:14:17;101173.94;;;16.27;80.52
46583;BME280;32309;48.858;8.252;2022-10-18T01:22:59;101160.22;;;16.24;80.47
46583;BME280;32309;48.858;8.252;2022-10-18T01:27:31;101155.94;;;16.23;80.36
46583;BME280;32309;48.858;8.252;2022-10-18T01:31:52;101143.06;;;16.20;80.31
46583;BME280;32309;48.858;8.252;2022-10-18T01:33:56;101145.91;;;16.17;80.46
46583;BME280;32309;48.858;8.252;2022-10-18T01:36:14;101143.28;;;16.17;80.82
46583;BME280;32309;48.858;8.252;2022-10-18T01:38:16;101154.69;;;16.16;80.81
46583;BME280;32309;48.858;8.252;2022-10-18T01:40:18;101151.13;;;16.17;80.77
46583;BME280;32309;48.858;8.252;2022-10-18T01:42:19;101152.91;;;16.16;80.91
46583;BME280;32309;48.858;8.252;2022-10-18T01:44:20;101148.53;;;16.17;80.61
46583;BME280;32309;48.858;8.252;2022-10-18T01:46:22;101151.97;;;16.17;80.91
46583;BME280;32309;48.858;8.252;2022-10-18T01:48:23;101149.22;;;16.19;80.73
46583;BME280;32309;48.858;8.252;2022-10-18T01:50:28;101145.78;;;16.18;80.55
46583;BME280;32309;48.858;8.252;2022-10-18T01:52:28;101144.94;;;16.18;80.63
46583;BME280;32309;48.858;8.252;2022-10-18T01:54:31;101142.31;;;16.18;80.61
46583;BME280;32309;48.858;8.252;2022-10-18T01:56:37;101135.34;;;16.18;80.98
46583;BME280;32309;48.858;8.252;2022-10-18T02:00:49;101143.19;;;16.18;80.57
46583;BME280;32309;48.858;8.252;2022-10-18T02:02:53;101142.22;;;16.19;80.65
46583;BME280;32309;48.858;8.252;2022-10-18T02:05:05;101141.28;;;16.20;80.99
46583;BME280;32309;48.858;8.252;2022-10-18T02:09:28;101132.59;;;16.20;80.73
46583;BME280;32309;48.858;8.252;2022-10-18T02:11:29;101136.91;;;16.21;80.86
46583;BME280;32309;48.858;8.252;2022-10-18T02:14:13;101131.75;;;16.19;80.52
46583;BME280;32309;48.858;8.252;2022-10-18T02:15:56;101130.00;;;16.20;81.22
46583;BME280;32309;48.858;8.252;2022-10-18T02:17:58;101128.19;;;16.20;80.99
46583;BME280;32309;48.858;8.252;2022-10-18T02:20:00;101120.47;;;16.19;80.81
46583;BME280;32309;48.858;8.252;2022-10-18T02:22:01;101122.16;;;16.20;81.04
46583;BME280;32309;48.858;8.252;2022-10-18T02:24:02;101120.34;;;16.20;80.88
46583;BME280;32309;48.858;8.252;2022-10-18T02:26:04;101123.81;;;16.21;80.71
46583;BME280;32309;48.858;8.252;2022-10-18T02:28:05;101123.19;;;16.17;80.51
46583;BME280;32309;48.858;8.252;2022-10-18T02:30:05;101112.09;;;16.13;80.68
46583;BME280;32309;48.858;8.252;2022-10-18T02:34:22;101108.66;;;16.13;80.69
46583;BME280;32309;48.858;8.252;2022-10-18T02:36:26;101107.91;;;16.11;80.81
46583;BME280;32309;48.858;8.252;2022-10-18T02:38:27;101101.00;;;16.10;80.57
46583;BME280;32309;48.858;8.252;2022-10-18T02:40:29;101102.16;;;16.06;80.17
46583;BME280;32309;48.858;8.252;2022-10-18T02:42:37;101104.22;;;16.01;80.71
46583;BME280;32309;48.858;8.252;2022-10-18T02:44:37;101103.41;;;16.00;80.74
46583;BME280;32309;48.858;8.252;2022-10-18T02:46:38;101106.22;;;15.97;81.31
46583;BME280;32309;48.858;8.252;2022-10-18T02:48:38;101113.31;;;15.95;81.13
46583;BME280;32309;48.858;8.252;2022-10-18T02:50:39;101112.50;;;15.94;81.31
46583;BME280;32309;48.858;8.252;2022-10-18T02:52:39;101111.53;;;15.95;81.71
46583;BME280;32309;48.858;8.252;2022-10-18T02:54:39;101116.06;;;15.93;81.56
46583;BME280;32309;48.858;8.252;2022-10-18T02:56:40;101112.50;;;15.94;81.89
46583;BME280;32309;48.858;8.252;2022-10-18T02:58:40;101112.50;;;15.94;82.02
46583;BME280;32309;48.858;8.252;2022-10-18T03:00:40;101119.50;;;15.94;81.99
46583;BME280;32309;48.858;8.252;2022-10-18T03:02:40;101112.59;;;15.93;82.08
46583;BME280;32309;48.858;8.252;2022-10-18T03:04:40;101111.75;;;15.92;81.95
46583;BME280;32309;48.858;8.252;2022-10-18T03:06:41;101111.97;;;15.89;81.58
46583;BME280;32309;48.858;8.252;2022-10-18T03:08:41;101109.53;;;15.86;81.96
46583;BME280;32309;48.858;8.252;2022-10-18T03:10:44;101112.38;;;15.83;81.83
46583;BME280;32309;48.858;8.252;2022-10-18T03:12:45;101111.69;;;15.79;81.89
46583;BME280;32309;48.858;8.252;2022-10-18T03:14:45;101117.03;;;15.78;82.00
46583;BME280;32309;48.858;8.252;2022-10-18T03:16:45;101106.91;;;15.73;82.04
46583;BME280;32309;48.858;8.252;2022-10-18T03:18:46;101111.38;;;15.71;82.29
46583;BME280;32309;48.858;8.252;2022-10-18T03:20:46;101116.81;;;15.68;82.54
46583;BME280;32309;48.858;8.252;2022-10-18T03:22:46;101121.28;;;15.66;82.59
46583;BME280;32309;48.858;8.252;2022-10-18T03:24:46;101126.72;;;15.63;83.29
46583;BME280;32309;48.858;8.252;2022-10-18T03:26:46;101132.06;;;15.61;83.43
46583;BME280;32309;48.858;8.252;2022-10-18T03:28:47;101133.91;;;15.59;83.39
46583;BME280;32309;48.858;8.252;2022-10-18T03:33:00;101142.50;;;15.61;83.86
46583;BME280;32309;48.858;8.252;2022-10-18T03:35:00;101132.88;;;15.62;83.43
46583;BME280;32309;48.858;8.252;2022-10-18T03:37:00;101132.97;;;15.60;83.99
46583;BME280;32309;48.858;8.252;2022-10-18T03:39:00;101131.19;;;15.61;83.71
46583;BME280;32309;48.858;8.252;2022-10-18T03:41:01;101133.69;;;15.62;83.79
46583;BME280;32309;48.858;8.252;2022-10-18T03:43:01;101139.03;;;15.61;83.77
46583;BME280;32309;48.858;8.252;2022-10-18T03:45:01;101142.50;;;15.61;84.28
46583;BME280;32309;48.858;8.252;2022-10-18T03:47:01;101137.28;;;15.61;84.23
46583;BME280;32309;48.858;8.252;2022-10-18T03:49:01;101151.16;;;15.62;83.98
46583;BME280;32309;48.858;8.252;2022-10-18T03:51:02;101148.56;;;15.62;83.61
46583;BME280;32309;48.858;8.252;2022-10-18T03:53:02;101157.31;;;15.61;83.74
46583;BME280;32309;48.858;8.252;2022-10-18T03:55:02;101155.56;;;15.61;83.88
46583;BME280;32309;48.858;8.252;2022-10-18T03:57:03;101159.13;;;15.60;83.79
46583;BME280;32309;48.858;8.252;2022-10-18T03:59:03;101159.00;;;15.62;84.24
46583;BME280;32309;48.858;8.252;2022-10-18T04:01:03;101158.06;;;15.63;84.83
46583;BME280;32309;48.858;8.252;2022-10-18T04:03:04;101161.50;;;15.63;84.38
46583;BME280;32309;48.858;8.252;2022-10-18T04:05:04;101163.94;;;15.67;84.62
46583;BME280;32309;48.858;8.252;2022-10-18T04:07:05;101160.38;;;15.68;84.94
46583;BME280;32309;48.858;8.252;2022-10-18T04:09:05;101161.22;;;15.68;84.74
46583;BME280;32309;48.858;8.252;2022-10-18T04:11:05;101164.56;;;15.70;84.68
46583;BME280;32309;48.858;8.252;2022-10-18T04:13:07;101163.75;;;15.70;84.75
46583;BME280;32309;48.858;8.252;2022-10-18T04:15:07;101161.88;;;15.72;85.10
46583;BME280;32309;48.858;8.252;2022-10-18T04:17:08;101164.38;;;15.73;84.83
46583;BME280;32309;48.858;8.252;2022-10-18T04:19:08;101167.00;;;15.73;84.68
46583;BME280;32309;48.858;8.252;2022-10-18T04:21:08;101168.66;;;15.74;84.78
46583;BME280;32309;48.858;8.252;2022-10-18T04:23:08;101160.81;;;15.74;84.36
46583;BME280;32309;48.858;8.252;2022-10-18T04:25:09;101157.38;;;15.74;84.87
46583;BME280;32309;48.858;8.252;2022-10-18T04:27:09;101162.59;;;15.74;84.89
46583;BME280;32309;48.858;8.252;2022-10-18T04:29:09;101161.78;;;15.73;84.76
46583;BME280;32309;48.858;8.252;2022-10-18T04:31:10;101161.78;;;15.73;84.95
46583;BME280;32309;48.858;8.252;2022-10-18T04:33:10;101163.63;;;15.71;85.09
46583;BME280;32309;48.858;8.252;2022-10-18T04:35:10;101161.97;;;15.70;84.57
46583;BME280;32309;48.858;8.252;2022-10-18T04:37:10;101162.72;;;15.72;84.96
46583;BME280;32309;48.858;8.252;2022-10-18T04:39:11;101160.91;;;15.73;84.94
46583;BME280;32309;48.858;8.252;2022-10-18T04:41:11;101170.44;;;15.74;84.52
46583;BME280;32309;48.858;8.252;2022-10-18T04:43:11;101167.00;;;15.73;84.49
46583;BME280;32309;48.858;8.252;2022-10-18T04:45:11;101171.19;;;15.76;84.42
46583;BME280;32309;48.858;8.252;2022-10-18T04:47:11;101165.97;;;15.76;84.78
46583;BME280;32309;48.858;8.252;2022-10-18T04:49:12;101173.69;;;15.77;84.91
46583;BME280;32309;48.858;8.252;2022-10-18T04:51:12;101168.47;;;15.77;84.92
46583;BME280;32309;48.858;8.252;2022-10-18T04:53:12;101168.38;;;15.79;85.02
46583;BME280;32309;48.858;8.252;2022-10-18T04:55:12;101170.16;;;15.78;84.96
46583;BME280;32309;48.858;8.252;2022-10-18T04:57:12;101167.53;;;15.78;85.33
46583;BME280;32309;48.858;8.252;2022-10-18T04:59:12;101177.16;;;15.78;84.77
46583;BME280;32309;48.858;8.252;2022-10-18T05:01:13;101176.41;;;15.76;85.18
46583;BME280;32309;48.858;8.252;2022-10-18T05:03:13;101176.50;;;15.74;85.06
46583;BME280;32309;48.858;8.252;2022-10-18T05:05:13;101174.84;;;15.73;85.66
46583;BME280;32309;48.858;8.252;2022-10-18T05:07:14;101178.28;;;15.74;85.31
46583;BME280;32309;48.858;8.252;2022-10-18T05:09:14;101174.09;;;15.71;85.21
46583;BME280;32309;48.858;8.252;2022-10-18T05:11:14;101165.31;;;15.72;85.83
46583;BME280;32309;48.858;8.252;2022-10-18T05:13:14;101161.13;;;15.70;85.45
46583;BME280;32309;48.858;8.252;2022-10-18T05:15:14;101175.13;;;15.69;85.89
46583;BME280;32309;48.858;8.252;2022-10-18T05:17:15;101175.88;;;15.71;85.66
46583;BME280;32309;48.858;8.252;2022-10-18T05:19:15;101170.66;;;15.71;85.70
46583;BME280;32309;48.858;8.252;2022-10-18T05:21:15;101175.88;;;15.71;85.17
46583;BME280;32309;48.858;8.252;2022-10-18T05:23:16;101183.06;;;15.67;85.25
46583;BME280;32309;48.858;8.252;2022-10-18T05:25:16;101179.63;;;15.67;85.83
46583;BME280;32309;48.858;8.252;2022-10-18T05:27:19;101183.06;;;15.67;86.00
46583;BME280;32309;48.858;8.252;2022-10-18T05:29:19;101174.59;;;15.63;85.60
46583;BME280;32309;48.858;8.252;2022-10-18T05:31:19;101175.44;;;15.64;86.06
46583;BME280;32309;48.858;8.252;2022-10-18T05:33:20;101171.97;;;15.63;86.09
46583;BME280;32309;48.858;8.252;2022-10-18T05:35:20;101168.31;;;15.66;86.40
46583;BME280;32309;48.858;8.252;2022-10-18T05:37:20;101169.25;;;15.65;86.06
46583;BME280;32309;48.858;8.252;2022-10-18T05:39:21;101174.47;;;15.65;86.21
46583;BME280;32309;48.858;8.252;2022-10-18T05:41:21;101174.41;;;15.67;86.40
46583;BME280;32309;48.858;8.252;2022-10-18T05:43:21;101176.06;;;15.68;86.38
46583;BME280;32309;48.858;8.252;2022-10-18T05:45:21;101170.00;;;15.67;86.29
46583;BME280;32309;48.858;8.252;2022-10-18T05:47:21;101166.56;;;15.67;86.73
46583;BME280;32309;48.858;8.252;2022-10-18T05:49:22;101162.16;;;15.67;86.64
46583;BME280;32309;48.858;8.252;2022-10-18T05:51:22;101161.34;;;15.67;86.30
46583;BME280;32309;48.858;8.252;2022-10-18T05:53:22;101161.34;;;15.67;86.19
46583;BME280;32309;48.858;8.252;2022-10-18T05:55:23;101160.38;;;15.68;86.78
46583;BME280;32309;48.858;8.252;2022-10-18T05:57:23;101149.94;;;15.68;86.47
46583;BME280;32309;48.858;8.252;2022-10-18T05:59:23;101154.31;;;15.67;87.00
46583;BME280;32309;48.858;8.252;2022-10-18T06:01:23;101156.13;;;15.67;86.58
46583;BME280;32309;48.858;8.252;2022-10-18T06:03:23;101158.63;;;15.68;86.46
46583;BME280;32309;48.858;8.252;2022-10-18T06:05:24;101159.44;;;15.69;86.63
46583;BME280;32309;48.858;8.252;2022-10-18T06:07:24;101160.38;;;15.68;86.98
46583;BME280;32309;48.858;8.252;2022-10-18T06:09:24;101165.59;;;15.68;86.92
46583;BME280;32309;48.858;8.252;2022-10-18T06:11:25;101164.03;;;15.65;87.40
46583;BME280;32309;48.858;8.252;2022-10-18T06:13:25;101160.59;;;15.64;87.51
46583;BME280;32309;48.858;8.252;2022-10-18T06:15:25;101174.41;;;15.67;87.68
46583;BME280;32309;48.858;8.252;2022-10-18T06:17:25;101167.38;;;15.67;86.80
46583;BME280;32309;48.858;8.252;2022-10-18T06:19:25;101166.47;;;15.68;87.53
46583;BME280;32309;48.858;8.252;2022-10-18T06:21:28;101174.31;;;15.68;87.29
46583;BME280;32309;48.858;8.252;2022-10-18T06:23:28;101175.97;;;15.69;87.05
46583;BME280;32309;48.858;8.252;2022-10-18T06:25:29;101176.72;;;15.71;86.86
46583;BME280;32309;48.858;8.252;2022-10-18T06:27:29;101182.69;;;15.73;87.37
46583;BME280;32309;48.858;8.252;2022-10-18T06:29:30;101184.44;;;15.73;86.60
46583;BME280;32309;48.858;8.252;2022-10-18T06:31:30;101193.25;;;15.72;87.01
46583;BME280;32309;48.858;8.252;2022-10-18T06:33:31;101191.47;;;15.72;86.71
46583;BME280;32309;48.858;8.252;2022-10-18T06:35:31;101196.47;;;15.75;87.28
46583;BME280;32309;48.858;8.252;2022-10-18T06:37:31;101193.75;;;15.77;87.09
46583;BME280;32309;48.858;8.252;2022-10-18T06:39:34;101200.56;;;15.79;87.23
46583;BME280;32309;48.858;8.252;2022-10-18T06:41:34;101205.78;;;15.79;86.26
46583;BME280;32309;48.858;8.252;2022-10-18T06:43:34;101215.34;;;15.80;86.75
46583;BME280;32309;48.858;8.252;2022-10-18T06:45:34;101224.88;;;15.82;86.56
46583;BME280;32309;48.858;8.252;2022-10-18T06:47:34;101231.78;;;15.83;86.43
46583;BME280;32309;48.858;8.252;2022-10-18T06:49:34;101231.03;;;15.80;85.89
46583;BME280;32309;48.858;8.252;2022-10-18T06:51:35;101223.09;;;15.82;87.03
46583;BME280;32309;48.858;8.252;2022-10-18T06:53:36;101219.44;;;15.85;86.87
46583;BME280;32309;48.858;8.252;2022-10-18T06:55:36;101228.75;;;15.89;85.34
46583;BME280;32309;48.858;8.252;2022-10-18T06:57:37;101233.81;;;15.92;84.95
46583;BME280;32309;48.858;8.252;2022-10-18T06:59:37;101233.38;;;15.98;86.27
46583;BME280;32309;48.858;8.252;2022-10-18T07:01:37;101234.78;;;16.04;86.03
46583;BME280;32309;48.858;8.252;2022-10-18T07:03:37;101234.28;;;16.11;85.72
46583;BME280;32309;48.858;8.252;2022-10-18T07:05:38;101236.69;;;16.14;84.34
46583;BME280;32309;48.858;8.252;2022-10-18T07:07:38;101237.34;;;16.18;85.02
46583;BME280;32309;48.858;8.252;2022-10-18T07:09:38;101245.72;;;16.23;85.14
46583;BME280;32309;48.858;8.252;2022-10-18T07:11:39;101251.66;;;16.25;84.18
46583;BME280;32309;48.858;8.252;2022-10-18T07:13:39;101247.09;;;16.29;83.65
46583;BME280;32309;48.858;8.252;2022-10-18T07:15:39;101252.00;;;16.34;84.61
46583;BME280;32309;48.858;8.252;2022-10-18T07:17:40;101260.47;;;16.37;84.02
46583;BME280;32309;48.858;8.252;2022-10-18T07:19:40;101260.38;;;16.39;83.98
46583;BME280;32309;48.858;8.252;2022-10-18T07:21:40;101262.88;;;16.40;83.74
46583;BME280;32309;48.858;8.252;2022-10-18T07:23:41;101259.34;;;16.41;83.74
46583;BME280;32309;48.858;8.252;2022-10-18T07:25:42;101266.25;;;16.42;83.77
46583;BME280;32309;48.858;8.252;2022-10-18T07:27:42;101279.13;;;16.45;84.37
46583;BME280;32309;48.858;8.252;2022-10-18T07:29:42;101282.38;;;16.49;83.58
46583;BME280;32309;48.858;8.252;2022-10-18T07:31:42;101284.16;;;16.49;83.80
46583;BME280;32309;48.858;8.252;2022-10-18T07:33:43;101292.97;;;16.47;83.86
46583;BME280;32309;48.858;8.252;2022-10-18T07:35:43;101294.00;;;16.45;83.78
46583;BME280;32309;48.858;8.252;2022-10-18T07:37:43;101296.50;;;16.46;83.38
46583;BME280;32309;48.858;8.252;2022-10-18T07:39:43;101303.81;;;16.41;84.66
46583;BME280;32309;48.858;8.252;2022-10-18T07:41:49;101300.66;;;16.36;85.98
46583;BME280;32309;48.858;8.252;2022-10-18T07:43:50;101301.69;;;16.34;85.32
46583;BME280;32309;48.858;8.252;2022-10-18T07:46:21;101303.88;;;16.27;86.81
46583;BME280;32309;48.858;8.252;2022-10-18T07:48:22;101311.63;;;16.28;87.98
46583;BME280;32309;48.858;8.252;2022-10-18T07:50:23;101315.81;;;16.31;88.62
46583;BME280;32309;48.858;8.252;2022-10-18T08:28:36;101311.38;;;17.25;89.16
46583;BME280;32309;48.858;8.252;2022-10-18T08:30:36;101312.41;;;17.22;88.90
46583;BME280;32309;48.858;8.252;2022-10-18T08:32:36;101307.47;;;17.18;87.72
46583;BME280;32309;48.858;8.252;2022-10-18T08:34:36;101312.84;;;17.16;88.07
46583;BME280;32309;48.858;8.252;2022-10-18T08:36:37;101308.53;;;17.15;87.28
46583;BME280;32309;48.858;8.252;2022-10-18T08:38:37;101305.19;;;17.13;87.25
46583;BME280;32309;48.858;8.252;2022-10-18T08:40:41;101300.91;;;17.12;89.52
46583;BME280;32309;48.858;8.252;2022-10-18T08:44:48;101304.56;;;17.09;89.32
46583;BME280;32309;48.858;8.252;2022-10-18T08:46:50;101313.25;;;17.10;88.75
46583;BME280;32309;48.858;8.252;2022-10-18T08:48:52;101310.97;;;17.05;88.21
46583;BME280;32309;48.858;8.252;2022-10-18T08:50:53;101316.09;;;17.07;88.18
46583;BME280;32309;48.858;8.252;2022-10-18T08:55:11;101318.47;;;17.10;87.91
46583;BME280;32309;48.858;8.252;2022-10-18T08:57:14;101319.41;;;17.09;88.06
46583;BME280;32309;48.858;8.252;2022-10-18T08:59:17;101313.34;;;17.08;87.22
46583;BME280;32309;48.858;8.252;2022-10-18T09:03:35;101318.72;;;17.07;87.83
46583;BME280;32309;48.858;8.252;2022-10-18T09:05:48;101326.56;;;17.07;87.04
46583;BME280;32309;48.858;8.252;2022-10-18T09:07:58;101328.31;;;17.06;86.74
46583;BME280;32309;48.858;8.252;2022-10-18T09:17:01;101331.41;;;17.13;86.85
46583;BME280;32309;48.858;8.252;2022-10-18T09:19:14;101323.84;;;17.21;87.33
46583;BME280;32309;48.858;8.252;2022-10-18T09:27:49;101338.16;;;17.41;86.26
46583;BME280;32309;48.858;8.252;2022-10-18T10:28:29;101319.84;;;18.87;79.20
46583;BME280;32309;48.858;8.252;2022-10-18T10:30:31;101321.91;;;18.94;79.24
46583;BME280;32309;48.858;8.252;2022-10-18T10:32:45;101325.84;;;19.00;79.02
46583;BME280;32309;48.858;8.252;2022-10-18T10:34:46;101324.66;;;19.04;78.10
46583;BME280;32309;48.858;8.252;2022-10-18T10:39:05;101323.38;;;19.10;78.05
46583;BME280;32309;48.858;8.252;2022-10-18T10:43:27;101331.88;;;19.14;77.05
46583;BME280;32309;48.858;8.252;2022-10-18T10:45:33;101324.94;;;19.12;76.88
46583;BME280;32309;48.858;8.252;2022-10-18T10:47:34;101331.13;;;19.11;77.40
46583;BME280;32309;48.858;8.252;2022-10-18T10:49:41;101322.31;;;19.12;77.90
46583;BME280;32309;48.858;8.252;2022-10-18T10:51:42;101325.50;;;19.16;78.37
46583;BME280;32309;48.858;8.252;2022-10-18T10:53:45;101324.69;;;19.16;78.61
46583;BME280;32309;48.858;8.252;2022-10-18T10:55:51;101326.63;;;19.14;77.95
46583;BME280;32309;48.858;8.252;2022-10-18T10:57:52;101326.72;;;19.12;77.81
46583;BME280;32309;48.858;8.252;2022-10-18T10:59:55;101337.34;;;19.10;77.35
46583;BME280;32309;48.858;8.252;2022-10-18T11:04:37;101331.63;;;19.17;78.15
46583;BME280;32309;48.858;8.252;2022-10-18T11:06:47;101336.28;;;19.24;77.23
46583;BME280;32309;48.858;8.252;2022-10-18T11:08:49;101330.19;;;19.35;78.37
46583;BME280;32309;48.858;8.252;2022-10-18T11:15:37;101337.38;;;19.56;77.43
46583;BME280;32309;48.858;8.252;2022-10-18T11:22:11;101337.81;;;19.61;76.36
46583;BME280;32309;48.858;8.252;2022-10-18T11:24:14;101331.38;;;19.65;76.40
46583;BME280;32309;48.858;8.252;2022-10-18T11:26:22;101328.50;;;19.68;76.23
46583;BME280;32309;48.858;8.252;2022-10-18T11:30:53;101331.47;;;19.75;75.78
46583;BME280;32309;48.858;8.252;2022-10-18T11:35:19;101327.50;;;19.81;75.30
46583;BME280;32309;48.858;8.252;2022-10-18T11:43:27;101310.16;;;20.01;74.93
46583;BME280;32309;48.858;8.252;2022-10-18T11:45:41;101304.66;;;20.04;75.03
46583;BME280;32309;48.858;8.252;2022-10-18T11:50:09;101302.22;;;20.12;75.10
46583;BME280;32309;48.858;8.252;2022-10-18T12:05:40;101277.09;;;20.40;73.42
46583;BME280;32309;48.858;8.252;2022-10-18T12:08:24;101271.31;;;20.47;73.26
46583;BME280;32309;48.858;8.252;2022-10-18T12:10:05;101275.94;;;20.54;73.41
46583;BME280;32309;48.858;8.252;2022-10-18T12:12:26;101277.09;;;20.61;73.36
46583;BME280;32309;48.858;8.252;2022-10-18T12:14:29;101286.28;;;20.67;74.13
46583;BME280;32309;48.858;8.252;2022-10-18T12:16:32;101278.50;;;20.66;72.00
46583;BME280;32309;48.858;8.252;2022-10-18T12:18:33;101273.91;;;20.68;71.73
46583;BME280;32309;48.858;8.252;2022-10-18T12:22:38;101270.59;;;20.66;73.06
46583;BME280;32309;48.858;8.252;2022-10-18T12:24:40;101271.69;;;20.63;71.42
46583;BME280;32309;48.858;8.252;2022-10-18T12:26:41;101276.97;;;20.63;71.29
46583;BME280;32309;48.858;8.252;2022-10-18T12:28:54;101272.16;;;20.68;73.34
46583;BME280;32309;48.858;8.252;2022-10-18T12:31:00;101269.41;;;20.70;73.58
46583;BME280;32309;48.858;8.252;2022-10-18T12:33:06;101264.97;;;20.70;70.87
46583;BME280;32309;48.858;8.252;2022-10-18T12:35:10;101271.19;;;20.69;70.88
46583;BME280;32309;48.858;8.252;2022-10-18T12:39:32;101268.31;;;20.72;71.79
46583;BME280;32309;48.858;8.252;2022-10-18T12:41:35;101266.88;;;20.68;70.04
46583;BME280;32309;48.858;8.252;2022-10-18T12:43:35;101264.38;;;20.67;69.30
46583;BME280;32309;48.858;8.252;2022-10-18T12:45:50;101266.03;;;20.68;71.15
46583;BME280;32309;48.858;8.252;2022-10-18T12:47:51;101260.66;;;20.69;70.43
46583;BME280;32309;48.858;8.252;2022-10-18T12:49:55;101254.66;;;20.67;69.88
46583;BME280;32309;48.858;8.252;2022-10-18T12:51:57;101253.47;;;20.71;70.51
46583;BME280;32309;48.858;8.252;2022-10-18T12:58:27;101250.88;;;20.81;70.02
46583;BME280;32309;48.858;8.252;2022-10-18T13:05:47;101246.53;;;21.01;69.59
46583;BME280;32309;48.858;8.252;2022-10-18T13:07:32;101236.03;;;21.11;71.02
46583;BME280;32309;48.858;8.252;2022-10-18T13:09:33;101233.69;;;21.18;69.65
46583;BME280;32309;48.858;8.252;2022-10-18T13:11:34;101238.44;;;21.24;70.16
46583;BME280;32309;48.858;8.252;2022-10-18T13:15:38;101234.56;;;21.38;68.70
46583;BME280;32309;48.858;8.252;2022-10-18T13:17:47;101236.22;;;21.39;68.38
46583;BME280;32309;48.858;8.252;2022-10-18T13:19:53;101234.03;;;21.34;68.07
46583;BME280;32309;48.858;8.252;2022-10-18T13:26:22;101229.72;;;21.33;68.57
46583;BME280;32309;48.858;8.252;2022-10-18T13:30:30;101228.03;;;21.32;69.45
46583;BME280;32309;48.858;8.252;2022-10-18T13:32:38;101230.81;;;21.31;68.30
46583;BME280;32309;48.858;8.252;2022-10-18T13:34:44;101236.75;;;21.23;66.80
46583;BME280;32309;48.858;8.252;2022-10-18T13:36:53;101242.84;;;21.23;66.86
46583;BME280;32309;48.858;8.252;2022-10-18T13:41:08;101239.66;;;21.20;69.60
46583;BME280;32309;48.858;8.252;2022-10-18T13:47:31;101245.69;;;21.01;70.66
46583;BME280;32309;48.858;8.252;2022-10-18T13:53:56;101245.53;;;20.92;71.99
46583;BME280;32309;48.858;8.252;2022-10-18T13:56:03;101247.56;;;20.89;70.00
46583;BME280;32309;48.858;8.252;2022-10-18T14:14:35;101257.81;;;20.61;70.81
46583;BME280;32309;48.858;8.252;2022-10-18T14:23:44;101258.22;;;20.35;71.04
46583;BME280;32309;48.858;8.252;2022-10-18T14:25:45;101253.78;;;20.36;70.84
46583;BME280;32309;48.858;8.252;2022-10-18T14:27:45;101257.50;;;20.33;70.60
46583;BME280;32309;48.858;8.252;2022-10-18T14:29:47;101257.75;;;20.30;70.72
46583;BME280;32309;48.858;8.252;2022-10-18T14:34:00;101255.75;;;20.22;71.14
46583;BME280;32309;48.858;8.252;2022-10-18T14:41:02;101260.19;;;20.22;71.33
46583;BME280;32309;48.858;8.252;2022-10-18T14:45:37;101261.16;;;20.21;71.34
46583;BME280;32309;48.858;8.252;2022-10-18T14:47:46;101267.13;;;20.23;71.13
46583;BME280;32309;48.858;8.252;2022-10-18T14:49:47;101257.66;;;20.20;71.32